createdAt,value
2018-08-16T00:00:29.418Z,5.40
2018-08-16T00:02:57.462Z,6.10
2018-08-16T00:05:25.631Z,6.00
2018-08-16T00:07:53.698Z,5.83
2018-08-16T00:10:21.738Z,6.43
2018-08-16T00:12:50.455Z,6.23
2018-08-16T00:15:19.439Z,6.50
2018-08-16T00:17:47.503Z,6.40
2018-08-16T00:20:15.679Z,6.00
2018-08-16T00:22:44.082Z,6.50
2018-08-16T00:25:12.549Z,6.37
2018-08-16T00:27:40.557Z,6.63
2018-08-16T00:30:09.444Z,7.33
2018-08-16T00:32:37.591Z,6.63
2018-08-16T00:35:05.765Z,6.67
2018-08-16T00:37:33.828Z,6.50
2018-08-16T00:40:01.923Z,6.30
2018-08-16T00:42:33.678Z,6.87
2018-08-16T00:45:02.246Z,6.37
2018-08-16T00:47:30.846Z,6.53
2018-08-16T00:49:58.940Z,6.80
2018-08-16T00:52:27.003Z,6.33
2018-08-16T00:54:55.044Z,6.60
2018-08-16T00:57:23.126Z,6.97
2018-08-16T00:59:51.195Z,6.80
2018-08-16T01:02:19.289Z,7.20
2018-08-16T01:04:47.305Z,7.53
2018-08-16T01:07:15.618Z,7.40
2018-08-16T01:09:45.694Z,7.57
2018-08-16T01:12:13.872Z,8.23
2018-08-16T01:14:41.894Z,7.73
2018-08-16T01:17:09.959Z,8.03
2018-08-16T01:19:38.068Z,7.90
2018-08-16T01:22:06.713Z,8.63
2018-08-16T01:24:34.743Z,8.43
2018-08-16T01:29:30.420Z,9.67
2018-08-16T01:31:58.455Z,9.77
2018-08-16T01:34:26.519Z,10.73
2018-08-16T01:36:54.572Z,10.30
2018-08-16T01:39:22.586Z,10.70
2018-08-16T01:41:50.699Z,10.40
2018-08-16T01:44:18.785Z,9.43
2018-08-16T01:46:46.851Z,9.93
2018-08-16T01:49:20.546Z,10.10
2018-08-16T01:51:48.595Z,9.93
2018-08-16T01:54:16.611Z,9.73
2018-08-16T01:56:44.778Z,8.93
2018-08-16T01:59:12.807Z,9.43
2018-08-16T02:01:40.910Z,9.40
2018-08-16T02:04:08.999Z,8.40
2018-08-16T02:06:37.149Z,8.47
2018-08-16T02:09:05.676Z,8.47
2018-08-16T02:11:33.853Z,8.77
2018-08-16T02:14:01.874Z,8.30
2018-08-16T02:16:30.051Z,9.27
2018-08-16T02:18:58.132Z,8.47
2018-08-16T02:21:26.179Z,8.07
2018-08-16T02:23:54.255Z,8.47
2018-08-16T02:26:22.440Z,9.60
2018-08-16T02:28:50.847Z,9.00
2018-08-16T02:31:18.907Z,8.37
2018-08-16T02:33:47.071Z,8.77
2018-08-16T02:36:15.039Z,8.43
2018-08-16T02:38:43.123Z,8.83
2018-08-16T02:41:11.159Z,8.43
2018-08-16T02:43:39.269Z,8.97
2018-08-16T02:46:07.343Z,8.30
2018-08-16T02:48:35.495Z,9.33
2018-08-16T02:51:03.780Z,8.60
2018-08-16T02:53:31.868Z,8.53
2018-08-16T02:56:00.004Z,8.40
2018-08-16T02:58:28.083Z,8.57
2018-08-16T03:00:56.186Z,8.37
2018-08-16T03:03:24.203Z,8.77
2018-08-16T03:05:52.241Z,8.90
2018-08-16T03:08:20.294Z,8.67
2018-08-16T03:10:48.323Z,8.43
2018-08-16T03:13:16.355Z,9.23
2018-08-16T03:15:44.405Z,8.70
2018-08-16T03:18:12.471Z,8.43
2018-08-16T03:20:40.560Z,7.93
2018-08-16T03:23:08.728Z,8.43
2018-08-16T03:25:36.786Z,8.73
2018-08-16T03:28:04.823Z,7.90
2018-08-16T03:30:32.890Z,8.37
2018-08-16T03:33:00.930Z,9.00
2018-08-16T03:35:28.954Z,9.07
2018-08-16T03:37:57.011Z,9.40
2018-08-16T03:40:25.051Z,7.97
2018-08-16T03:42:53.117Z,9.37
2018-08-16T03:45:21.174Z,8.37
2018-08-16T03:47:49.222Z,8.60
2018-08-16T03:50:17.308Z,8.07
2018-08-16T03:52:45.402Z,8.63
2018-08-16T03:55:13.417Z,8.10
2018-08-16T03:57:41.598Z,7.97
2018-08-16T04:00:09.723Z,8.10
2018-08-16T04:02:37.871Z,8.53
2018-08-16T04:05:06.131Z,8.97
2018-08-16T04:07:34.165Z,8.67
2018-08-16T04:10:02.483Z,8.97
2018-08-16T04:12:30.574Z,8.63
2018-08-16T04:14:58.624Z,8.17
2018-08-16T04:17:35.040Z,7.87
2018-08-16T04:20:03.666Z,7.93
2018-08-16T04:22:31.736Z,8.73
2018-08-16T04:24:59.840Z,7.80
2018-08-16T04:27:28.286Z,8.70
2018-08-16T04:29:56.636Z,7.73
2018-08-16T04:32:24.829Z,7.80
2018-08-16T04:34:52.881Z,7.90
2018-08-16T04:37:21.053Z,8.13
2018-08-16T04:39:49.082Z,7.50
2018-08-16T04:42:17.112Z,8.10
2018-08-16T04:44:45.142Z,8.20
2018-08-16T04:47:13.236Z,7.90
2018-08-16T04:49:41.259Z,8.83
2018-08-16T04:52:09.299Z,7.30
2018-08-16T04:54:37.330Z,7.90
2018-08-16T04:57:05.372Z,7.83
2018-08-16T04:59:33.397Z,8.93
2018-08-16T05:02:01.471Z,8.77
2018-08-16T05:04:29.597Z,8.37
2018-08-16T05:06:57.613Z,8.17
2018-08-16T05:09:25.647Z,8.77
2018-08-16T05:11:53.759Z,9.13
2018-08-16T05:14:21.830Z,7.97
2018-08-16T05:16:49.903Z,9.07
2018-08-16T05:19:17.966Z,8.67
2018-08-16T05:21:46.040Z,8.33
2018-08-16T05:24:14.105Z,9.27
2018-08-16T05:26:42.145Z,8.83
2018-08-16T05:29:10.182Z,8.67
2018-08-16T05:31:38.233Z,8.30
2018-08-16T05:34:06.283Z,8.60
2018-08-16T05:36:34.315Z,9.13
2018-08-16T05:39:02.386Z,7.90
2018-08-16T05:41:30.511Z,8.57
2018-08-16T05:43:58.532Z,8.47
2018-08-16T05:46:26.566Z,8.27
2018-08-16T05:48:54.632Z,7.93
2018-08-16T05:51:22.661Z,8.87
2018-08-16T05:53:50.689Z,8.70
2018-08-16T05:56:18.738Z,8.27
2018-08-16T05:58:46.805Z,9.10
2018-08-16T06:01:14.826Z,9.23
2018-08-16T06:03:42.860Z,8.43
2018-08-16T06:06:10.919Z,8.73
2018-08-16T06:08:38.959Z,9.17
2018-08-16T06:11:07.073Z,9.30
2018-08-16T06:13:35.094Z,9.83
2018-08-16T06:16:03.203Z,9.33
2018-08-16T06:18:31.501Z,8.87
2018-08-16T06:20:59.535Z,9.97
2018-08-16T06:23:27.637Z,9.00
2018-08-16T06:25:55.710Z,9.17
2018-08-16T06:28:23.778Z,8.60
2018-08-16T06:30:51.809Z,8.60
2018-08-16T06:33:19.919Z,9.23
2018-08-16T06:35:48.148Z,8.47
2018-08-16T06:38:16.176Z,8.10
2018-08-16T06:40:44.239Z,8.37
2018-08-16T06:43:12.541Z,8.80
2018-08-16T06:45:40.582Z,8.53
2018-08-16T06:48:08.647Z,8.73
2018-08-16T06:50:36.685Z,8.47
2018-08-16T06:53:04.795Z,7.90
2018-08-16T06:55:32.820Z,6.80
2018-08-16T06:58:00.898Z,6.40
2018-08-16T07:00:29.022Z,6.07
2018-08-16T07:02:57.075Z,6.40
2018-08-16T07:05:25.111Z,5.87
2018-08-16T07:07:53.153Z,5.73
2018-08-16T07:10:21.218Z,6.53
2018-08-16T07:12:49.409Z,5.80
2018-08-16T07:15:17.591Z,6.27
2018-08-16T07:17:45.670Z,5.60
2018-08-16T07:20:13.918Z,5.23
2018-08-16T07:22:41.958Z,5.43
2018-08-16T07:25:10.242Z,5.70
2018-08-16T07:27:38.370Z,4.97
2018-08-16T07:30:07.394Z,5.57
2018-08-16T07:32:35.359Z,5.23
2018-08-16T07:35:03.672Z,5.10
2018-08-16T07:37:31.743Z,5.17
2018-08-16T07:39:59.771Z,5.43
2018-08-16T07:42:27.819Z,5.40
2018-08-16T07:45:08.560Z,4.83
2018-08-16T07:47:36.609Z,5.10
2018-08-16T07:50:05.301Z,4.37
2018-08-16T07:52:33.367Z,4.90
2018-08-16T07:55:01.429Z,3.90
2018-08-16T07:57:29.450Z,3.90
2018-08-16T07:59:57.472Z,3.70
2018-08-16T08:02:25.593Z,3.50
2018-08-16T08:04:53.671Z,3.80
2018-08-16T08:07:21.728Z,3.53
2018-08-16T08:09:49.882Z,3.43
2018-08-16T08:12:17.871Z,3.43
2018-08-16T08:14:45.899Z,3.77
2018-08-16T08:17:13.947Z,3.73
2018-08-16T08:19:41.994Z,3.87
2018-08-16T08:22:10.034Z,4.30
2018-08-16T08:24:38.047Z,3.83
2018-08-16T08:27:06.347Z,4.63
2018-08-16T08:29:34.376Z,4.43
2018-08-16T08:32:02.464Z,3.80
2018-08-16T08:34:30.498Z,3.93
2018-08-16T08:37:04.327Z,3.80
2018-08-16T08:39:32.354Z,3.53
2018-08-16T08:42:00.571Z,4.07
2018-08-16T08:44:28.964Z,4.20
2018-08-16T08:46:56.986Z,4.13
2018-08-16T08:49:25.007Z,4.03
2018-08-16T08:51:53.894Z,4.20
2018-08-16T08:54:33.125Z,3.80
2018-08-16T08:57:06.878Z,4.40
2018-08-16T08:59:34.911Z,4.87
2018-08-16T09:02:02.968Z,4.77
2018-08-16T09:04:31.032Z,5.10
2018-08-16T09:06:59.163Z,4.60
2018-08-16T09:09:27.200Z,4.77
2018-08-16T09:12:00.975Z,4.80
2018-08-16T09:14:34.593Z,5.00
2018-08-16T09:17:02.630Z,4.77
2018-08-16T09:19:30.666Z,4.37
2018-08-16T09:21:58.697Z,5.00
2018-08-16T09:24:26.749Z,5.27
2018-08-16T09:26:54.787Z,4.53
2018-08-16T09:30:34.751Z,4.47
2018-08-16T09:33:08.513Z,4.83
2018-08-16T09:35:36.581Z,4.77
2018-08-16T09:38:04.795Z,4.80
2018-08-16T09:40:32.826Z,5.00
2018-08-16T09:43:00.882Z,4.93
2018-08-16T09:45:34.892Z,5.13
2018-08-16T09:48:08.639Z,5.87
2018-08-16T09:50:36.692Z,5.17
2018-08-16T09:53:04.755Z,4.53
2018-08-16T09:55:32.833Z,5.20
2018-08-16T09:58:00.851Z,5.03
2018-08-16T10:00:34.419Z,4.23
2018-08-16T10:03:02.459Z,4.57
2018-08-16T10:05:30.530Z,4.73
2018-08-16T10:07:58.719Z,4.23
2018-08-16T10:10:26.782Z,4.53
2018-08-16T10:12:54.855Z,4.63
2018-08-16T10:15:22.904Z,4.70
2018-08-16T10:17:51.031Z,5.07
2018-08-16T10:20:19.182Z,4.17
2018-08-16T10:22:47.255Z,4.20
2018-08-16T10:25:15.323Z,4.07
2018-08-16T10:27:43.351Z,4.77
2018-08-16T10:30:11.416Z,4.30
2018-08-16T10:32:39.443Z,4.47
2018-08-16T10:35:07.603Z,3.90
2018-08-16T10:37:35.643Z,4.13
2018-08-16T10:40:03.697Z,4.10
2018-08-16T10:42:31.728Z,3.90
2018-08-16T10:44:59.752Z,4.10
2018-08-16T10:47:27.770Z,4.33
2018-08-16T10:49:55.802Z,4.33
2018-08-16T10:52:23.914Z,4.47
2018-08-16T10:54:51.975Z,4.37
2018-08-16T10:57:20.048Z,4.70
2018-08-16T10:59:48.075Z,4.43
2018-08-16T11:02:16.108Z,4.50
2018-08-16T11:04:44.259Z,4.40
2018-08-16T11:07:12.352Z,4.73
2018-08-16T11:09:40.404Z,4.37
2018-08-16T11:12:08.513Z,4.08
2018-08-16T11:14:36.537Z,4.15
2018-08-16T11:17:04.628Z,4.27
2018-08-16T11:19:32.706Z,4.30
2018-08-16T11:22:00.779Z,4.70
2018-08-16T11:24:28.852Z,4.10
2018-08-16T11:26:56.963Z,4.30
2018-08-16T11:29:25.031Z,4.83
2018-08-16T11:31:53.061Z,4.33
2018-08-16T11:34:21.131Z,4.30
2018-08-16T11:36:49.231Z,4.05
2018-08-16T11:39:17.300Z,4.70
2018-08-16T11:41:45.361Z,4.37
2018-08-16T11:44:13.547Z,4.20
2018-08-16T11:46:41.703Z,4.00
2018-08-16T11:49:09.767Z,4.22
2018-08-16T11:51:37.815Z,4.35
2018-08-16T11:54:05.923Z,4.10
2018-08-16T11:56:33.976Z,4.70
2018-08-16T11:59:02.053Z,4.05
2018-08-16T12:01:30.123Z,4.47
2018-08-16T12:03:58.180Z,4.12
2018-08-16T12:06:26.324Z,4.40
2018-08-16T12:08:54.356Z,4.62
2018-08-16T12:11:22.467Z,4.40
2018-08-16T12:13:50.494Z,4.40
2018-08-16T12:16:18.547Z,4.70
2018-08-16T12:18:46.572Z,4.50
2018-08-16T12:21:14.595Z,5.25
2018-08-16T12:23:42.660Z,4.53
2018-08-16T12:26:10.695Z,4.53
2018-08-16T12:28:38.787Z,4.55
2018-08-16T12:31:06.895Z,4.65
2018-08-16T12:33:34.947Z,5.05
2018-08-16T12:36:03.020Z,4.42
2018-08-16T12:38:31.093Z,4.53
2018-08-16T12:40:59.200Z,4.20
2018-08-16T12:43:31.788Z,4.37
2018-08-16T12:45:59.825Z,4.28
2018-08-16T12:48:27.895Z,4.35
2018-08-16T12:50:55.977Z,4.15
2018-08-16T12:53:24.039Z,4.58
2018-08-16T12:55:52.109Z,4.45
2018-08-16T12:58:20.266Z,4.72
2018-08-16T13:00:48.330Z,4.55
2018-08-16T13:03:16.377Z,5.30
2018-08-16T13:05:44.394Z,4.62
2018-08-16T13:08:12.467Z,4.60
2018-08-16T13:10:40.530Z,4.72
2018-08-16T13:13:08.561Z,4.85
2018-08-16T13:15:36.680Z,4.80
2018-08-16T13:18:04.991Z,4.20
2018-08-16T13:20:33.114Z,4.60
2018-08-16T13:23:01.211Z,4.28
2018-08-16T13:25:29.466Z,4.80
2018-08-16T13:27:57.531Z,4.72
2018-08-16T13:30:25.586Z,5.17
2018-08-16T13:32:53.627Z,5.30
2018-08-16T13:35:21.672Z,5.22
2018-08-16T13:37:49.738Z,5.45
2018-08-16T13:40:17.799Z,4.90
2018-08-16T13:42:45.881Z,4.70
2018-08-16T13:45:13.984Z,5.62
2018-08-16T13:47:42.032Z,4.72
2018-08-16T13:50:10.090Z,5.05
2018-08-16T13:52:38.150Z,5.83
2018-08-16T13:55:06.275Z,5.22
2018-08-16T13:57:34.403Z,5.03
2018-08-16T14:00:02.491Z,4.65
2018-08-16T14:02:30.556Z,5.30
2018-08-16T14:04:58.610Z,5.30
2018-08-16T14:07:26.648Z,5.15
2018-08-16T14:09:54.664Z,5.05
2018-08-16T14:12:22.748Z,5.40
2018-08-16T14:14:50.828Z,5.33
2018-08-16T14:17:19.014Z,5.47
2018-08-16T14:19:47.049Z,4.75
2018-08-16T14:22:15.119Z,4.47
2018-08-16T14:24:43.146Z,4.70
2018-08-16T14:27:11.263Z,4.80
2018-08-16T14:29:39.300Z,4.40
2018-08-16T14:32:07.444Z,4.53
2018-08-16T14:34:35.380Z,3.90
2018-08-16T14:37:04.060Z,4.25
2018-08-16T14:39:32.088Z,5.65
2018-08-16T14:42:00.137Z,4.87
2018-08-16T14:44:28.196Z,4.55
2018-08-16T14:46:56.355Z,4.55
2018-08-16T14:49:24.425Z,4.08
2018-08-16T14:51:52.536Z,4.45
2018-08-16T14:54:20.573Z,4.70
2018-08-16T14:56:48.614Z,4.15
2018-08-16T14:59:16.650Z,4.37
2018-08-16T15:01:44.686Z,4.50
2018-08-16T15:04:12.772Z,4.40
2018-08-16T15:06:40.951Z,4.92
2018-08-16T15:09:09.812Z,4.33
2018-08-16T15:11:37.849Z,3.77
2018-08-16T15:14:05.902Z,4.62
2018-08-16T15:16:33.962Z,3.87
2018-08-16T15:19:02.101Z,3.95
2018-08-16T15:21:30.185Z,3.70
2018-08-16T15:23:58.220Z,3.80
2018-08-16T15:26:26.324Z,3.70
2018-08-16T15:28:54.399Z,3.77
2018-08-16T15:31:22.462Z,3.30
2018-08-16T15:33:50.544Z,3.77
2018-08-16T15:36:18.572Z,3.70
2018-08-16T15:38:46.632Z,3.60
2018-08-16T15:41:14.762Z,3.47
2018-08-16T15:43:42.805Z,3.30
2018-08-16T15:46:10.895Z,3.23
2018-08-16T15:48:39.290Z,29.40
2018-08-16T15:51:07.339Z,3.73
2018-08-16T15:53:35.419Z,5.20
2018-08-16T15:56:03.478Z,3.83
2018-08-16T15:58:31.556Z,9.67
2018-08-16T16:00:59.644Z,3.77
2018-08-16T16:03:27.729Z,3.33
2018-08-16T16:05:55.837Z,3.50
2018-08-16T16:08:23.850Z,3.30
2018-08-16T16:10:51.888Z,3.40
2018-08-16T16:13:20.706Z,3.50
2018-08-16T16:15:48.835Z,3.27
2018-08-16T16:18:16.860Z,3.23
2018-08-16T16:20:44.934Z,3.80
2018-08-16T16:23:13.009Z,3.20
2018-08-16T16:25:41.065Z,5.07
2018-08-16T16:28:09.113Z,14.13
2018-08-16T16:30:37.218Z,4.20
2018-08-16T16:33:05.583Z,2.80
2018-08-16T16:35:33.648Z,2.87
2018-08-16T16:38:01.715Z,3.13
2018-08-16T16:40:29.835Z,2.83
2018-08-16T16:42:57.885Z,2.50
2018-08-16T16:45:25.927Z,2.60
2018-08-16T16:47:54.028Z,2.33
2018-08-16T16:50:22.086Z,2.60
2018-08-16T16:52:50.173Z,2.50
2018-08-16T16:55:18.352Z,2.47
2018-08-16T16:57:46.436Z,3.57
2018-08-16T17:00:14.614Z,2.60
2018-08-16T17:02:42.647Z,4.90
2018-08-16T17:05:11.335Z,2.77
2018-08-16T17:07:39.750Z,3.40
2018-08-16T17:10:08.514Z,3.77
2018-08-16T17:12:36.589Z,2.90
2018-08-16T17:15:05.431Z,3.30
2018-08-16T17:17:33.450Z,2.90
2018-08-16T17:20:01.520Z,2.27
2018-08-16T17:22:29.591Z,2.47
2018-08-16T17:24:57.630Z,2.93
2018-08-16T17:27:25.747Z,2.50
2018-08-16T17:29:53.819Z,3.07
2018-08-16T17:32:22.058Z,2.90
2018-08-16T17:34:50.331Z,2.53
2018-08-16T17:37:18.412Z,2.50
2018-08-16T17:39:46.463Z,2.77
2018-08-16T17:42:14.507Z,3.10
2018-08-16T17:44:42.543Z,2.23
2018-08-16T17:47:10.811Z,2.83
2018-08-16T17:49:38.875Z,2.60
2018-08-16T17:52:06.951Z,2.70
2018-08-16T17:54:34.995Z,2.47
2018-08-16T17:57:03.224Z,2.33
2018-08-16T17:59:31.275Z,2.60
2018-08-16T18:01:59.440Z,2.40
2018-08-16T18:04:27.498Z,2.60
2018-08-16T18:06:55.585Z,2.70
2018-08-16T18:09:23.679Z,2.90
2018-08-16T18:11:51.776Z,2.67
2018-08-16T18:14:19.874Z,2.73
2018-08-16T18:16:47.929Z,2.90
2018-08-16T18:19:16.010Z,2.50
2018-08-16T18:21:44.108Z,2.80
2018-08-16T18:24:12.379Z,2.60
2018-08-16T18:26:40.613Z,2.60
2018-08-16T18:29:08.667Z,2.67
2018-08-16T18:31:36.876Z,2.73
2018-08-16T18:34:04.927Z,2.73
2018-08-16T18:36:33.086Z,2.77
2018-08-16T18:39:01.129Z,2.60
2018-08-16T18:41:29.243Z,2.90
2018-08-16T18:43:57.354Z,2.67
2018-08-16T18:46:25.407Z,2.70
2018-08-16T18:48:56.438Z,2.40
2018-08-16T18:51:24.998Z,2.73
2018-08-16T18:53:53.135Z,2.30
2018-08-16T18:56:21.156Z,3.03
2018-08-16T18:58:49.253Z,2.93
2018-08-16T19:01:17.408Z,2.60
2018-08-16T19:03:45.479Z,2.70
2018-08-16T19:06:13.527Z,2.70
2018-08-16T19:08:41.637Z,2.60
2018-08-16T19:11:09.686Z,2.67
2018-08-16T19:13:37.814Z,2.90
2018-08-16T19:16:05.834Z,3.20
2018-08-16T19:18:33.988Z,3.43
2018-08-16T19:21:02.018Z,3.43
2018-08-16T19:23:30.078Z,2.90
2018-08-16T19:25:58.158Z,3.30
2018-08-16T19:28:26.200Z,3.30
2018-08-16T19:30:54.272Z,3.00
2018-08-16T19:33:22.319Z,4.10
2018-08-16T19:35:50.425Z,3.07
2018-08-16T19:38:18.402Z,4.10
2018-08-16T19:40:46.451Z,3.47
2018-08-16T19:43:14.512Z,3.60
2018-08-16T19:45:42.603Z,3.83
2018-08-16T19:48:10.895Z,3.80
2018-08-16T19:50:38.762Z,3.80
2018-08-16T19:53:06.853Z,3.70
2018-08-16T19:55:34.910Z,2.90
2018-08-16T19:58:03.029Z,3.77
2018-08-16T20:00:31.089Z,3.90
2018-08-16T20:02:59.633Z,3.27
2018-08-16T20:05:27.644Z,4.33
2018-08-16T20:07:55.774Z,3.70
2018-08-16T20:10:23.934Z,4.40
2018-08-16T20:12:51.967Z,4.70
2018-08-16T20:15:20.075Z,4.50
2018-08-16T20:17:48.139Z,3.73
2018-08-16T20:20:16.255Z,3.93
2018-08-16T20:22:44.247Z,3.77
2018-08-16T20:25:12.282Z,4.33
2018-08-16T20:27:40.341Z,4.27
2018-08-16T20:30:08.433Z,4.10
2018-08-16T20:32:36.431Z,3.50
2018-08-16T20:35:04.449Z,3.97
2018-08-16T20:37:32.523Z,4.20
2018-08-16T20:40:00.570Z,4.33
2018-08-16T20:42:28.624Z,4.90
2018-08-16T20:44:56.730Z,4.10
2018-08-16T20:47:24.784Z,5.37
2018-08-16T20:49:52.824Z,5.13
2018-08-16T20:52:20.843Z,5.17
2018-08-16T20:54:49.040Z,5.13
2018-08-16T20:57:17.078Z,4.27
2018-08-16T20:59:45.114Z,4.30
2018-08-16T21:02:13.154Z,4.37
2018-08-16T21:04:41.204Z,3.53
2018-08-16T21:07:09.707Z,3.50
2018-08-16T21:09:37.874Z,4.17
2018-08-16T21:12:05.891Z,4.20
2018-08-16T21:14:33.959Z,3.53
2018-08-16T21:17:01.999Z,4.13
2018-08-16T21:19:30.162Z,4.07
2018-08-16T21:21:58.175Z,4.90
2018-08-16T21:24:26.198Z,4.17
2018-08-16T21:26:54.374Z,4.67
2018-08-16T21:29:22.456Z,5.17
2018-08-16T21:31:50.507Z,4.27
2018-08-16T21:34:18.809Z,4.60
2018-08-16T21:36:46.870Z,5.70
2018-08-16T21:39:14.920Z,4.77
2018-08-16T21:41:43.003Z,4.63
2018-08-16T21:44:11.501Z,6.03
2018-08-16T21:46:39.584Z,6.63
2018-08-16T21:49:07.620Z,7.30
2018-08-16T21:51:35.654Z,5.70
2018-08-16T21:54:03.703Z,7.70
2018-08-16T21:56:31.944Z,6.73
2018-08-16T21:58:59.992Z,7.23
2018-08-16T22:01:28.036Z,6.33
2018-08-16T22:03:56.062Z,7.20
2018-08-16T22:06:29.598Z,7.20
2018-08-16T22:08:57.635Z,7.27
2018-08-16T22:11:25.774Z,8.13
2018-08-16T22:13:53.818Z,8.37
2018-08-16T22:16:21.860Z,7.37
2018-08-16T22:18:49.948Z,7.87
2018-08-16T22:21:17.979Z,7.90
2018-08-16T22:23:46.015Z,8.10
2018-08-16T22:26:14.224Z,7.10
2018-08-16T22:28:42.212Z,7.77
2018-08-16T22:31:10.327Z,8.73
2018-08-16T22:33:38.454Z,9.33
2018-08-16T22:36:06.619Z,9.93
2018-08-16T22:38:34.804Z,12.77
2018-08-16T22:41:02.848Z,12.37
2018-08-16T22:43:30.923Z,15.83
2018-08-16T22:45:59.006Z,14.47
2018-08-16T22:48:27.114Z,16.07
2018-08-16T22:50:55.975Z,19.17
2018-08-16T22:53:24.056Z,16.53
2018-08-16T22:55:52.077Z,19.70
2018-08-16T22:58:20.126Z,15.63
2018-08-16T23:00:48.166Z,20.13
2018-08-16T23:03:16.368Z,15.77
2018-08-16T23:05:44.498Z,19.00
2018-08-16T23:08:12.569Z,19.87
2018-08-16T23:10:40.632Z,13.13
2018-08-16T23:13:08.663Z,10.80
2018-08-16T23:15:36.699Z,14.77
2018-08-16T23:18:04.792Z,15.97
2018-08-16T23:20:32.830Z,9.53
2018-08-16T23:23:00.872Z,10.97
2018-08-16T23:25:28.927Z,8.27
2018-08-16T23:27:57.043Z,7.37
2018-08-16T23:30:25.100Z,10.10
2018-08-16T23:32:53.227Z,9.10
2018-08-16T23:35:21.363Z,9.30
2018-08-16T23:37:49.434Z,9.33
2018-08-16T23:40:17.479Z,9.10
2018-08-16T23:42:45.508Z,8.53
2018-08-16T23:45:13.538Z,7.83
2018-08-16T23:47:41.582Z,7.37
2018-08-16T23:50:10.406Z,9.13
2018-08-16T23:52:38.479Z,8.60
2018-08-16T23:55:07.799Z,10.10
2018-08-16T23:57:35.836Z,8.60
